sensor_id;sensor_type;location;lat;lon;timestamp;P1;durP1;ratioP1;P2;durP2;ratioP2
45684;SDS011;46836;48.388;16.210;2023-02-15T00:02:00;26.60;;;14.80;;
45684;SDS011;46836;48.388;16.210;2023-02-15T00:04:27;27.02;;;15.55;;
45684;SDS011;46836;48.388;16.210;2023-02-15T00:07:17;26.35;;;14.45;;
45684;SDS011;46836;48.388;16.210;2023-02-15T00:09:45;23.70;;;14.98;;
45684;SDS011;46836;48.388;16.210;2023-02-15T00:12:14;23.52;;;14.88;;
45684;SDS011;46836;48.388;16.210;2023-02-15T00:14:41;30.45;;;15.30;;
45684;SDS011;46836;48.388;16.210;2023-02-15T00:17:09;28.60;;;16.15;;
45684;SDS011;46836;48.388;16.210;2023-02-15T00:19:36;27.88;;;15.98;;
45684;SDS011;46836;48.388;16.210;2023-02-15T00:22:03;29.05;;;15.80;;
45684;SDS011;46836;48.388;16.210;2023-02-15T00:24:31;24.30;;;13.93;;
45684;SDS011;46836;48.388;16.210;2023-02-15T00:26:58;24.65;;;15.00;;
45684;SDS011;46836;48.388;16.210;2023-02-15T00:29:25;28.20;;;16.13;;
45684;SDS011;46836;48.388;16.210;2023-02-15T00:31:52;27.77;;;14.15;;
45684;SDS011;46836;48.388;16.210;2023-02-15T00:34:20;25.58;;;15.35;;
45684;SDS011;46836;48.388;16.210;2023-02-15T00:36:49;25.27;;;14.65;;
45684;SDS011;46836;48.388;16.210;2023-02-15T00:39:17;26.95;;;14.63;;
45684;SDS011;46836;48.388;16.210;2023-02-15T00:41:45;23.85;;;13.05;;
45684;SDS011;46836;48.388;16.210;2023-02-15T00:44:13;24.83;;;15.10;;
45684;SDS011;46836;48.388;16.210;2023-02-15T00:46:41;26.48;;;14.95;;
45684;SDS011;46836;48.388;16.210;2023-02-15T00:49:09;23.50;;;14.27;;
45684;SDS011;46836;48.388;16.210;2023-02-15T00:51:36;28.02;;;15.65;;
45684;SDS011;46836;48.388;16.210;2023-02-15T00:54:04;26.75;;;14.75;;
45684;SDS011;46836;48.388;16.210;2023-02-15T00:56:31;25.60;;;14.70;;
45684;SDS011;46836;48.388;16.210;2023-02-15T00:58:59;26.42;;;15.82;;
45684;SDS011;46836;48.388;16.210;2023-02-15T01:01:26;28.23;;;16.67;;
45684;SDS011;46836;48.388;16.210;2023-02-15T01:03:53;29.38;;;16.52;;
45684;SDS011;46836;48.388;16.210;2023-02-15T01:06:20;27.77;;;15.90;;
45684;SDS011;46836;48.388;16.210;2023-02-15T01:08:47;29.63;;;16.20;;
45684;SDS011;46836;48.388;16.210;2023-02-15T01:11:19;27.27;;;16.20;;
45684;SDS011;46836;48.388;16.210;2023-02-15T01:13:50;30.15;;;15.90;;
45684;SDS011;46836;48.388;16.210;2023-02-15T01:16:20;27.90;;;16.00;;
45684;SDS011;46836;48.388;16.210;2023-02-15T01:18:48;29.67;;;16.08;;
45684;SDS011;46836;48.388;16.210;2023-02-15T01:21:17;37.25;;;15.27;;
45684;SDS011;46836;48.388;16.210;2023-02-15T01:23:47;23.60;;;14.35;;
45684;SDS011;46836;48.388;16.210;2023-02-15T01:26:14;27.52;;;14.43;;
45684;SDS011;46836;48.388;16.210;2023-02-15T01:28:42;28.23;;;14.45;;
45684;SDS011;46836;48.388;16.210;2023-02-15T01:31:10;29.00;;;15.68;;
45684;SDS011;46836;48.388;16.210;2023-02-15T01:33:39;26.23;;;14.63;;
45684;SDS011;46836;48.388;16.210;2023-02-15T01:36:06;27.52;;;16.10;;
45684;SDS011;46836;48.388;16.210;2023-02-15T01:38:34;26.30;;;14.15;;
45684;SDS011;46836;48.388;16.210;2023-02-15T01:41:02;28.98;;;15.52;;
45684;SDS011;46836;48.388;16.210;2023-02-15T01:43:49;27.83;;;15.93;;
45684;SDS011;46836;48.388;16.210;2023-02-15T01:46:23;28.55;;;15.15;;
45684;SDS011;46836;48.388;16.210;2023-02-15T01:48:56;32.30;;;15.60;;
45684;SDS011;46836;48.388;16.210;2023-02-15T01:51:29;25.85;;;14.82;;
45684;SDS011;46836;48.388;16.210;2023-02-15T01:54:01;26.83;;;14.05;;
45684;SDS011;46836;48.388;16.210;2023-02-15T01:56:34;24.48;;;15.00;;
45684;SDS011;46836;48.388;16.210;2023-02-15T01:59:05;24.70;;;15.10;;
45684;SDS011;46836;48.388;16.210;2023-02-15T02:01:35;29.40;;;15.60;;
45684;SDS011;46836;48.388;16.210;2023-02-15T02:06:31;29.35;;;14.68;;
45684;SDS011;46836;48.388;16.210;2023-02-15T02:09:01;26.05;;;16.02;;
45684;SDS011;46836;48.388;16.210;2023-02-15T02:11:28;24.92;;;15.02;;
45684;SDS011;46836;48.388;16.210;2023-02-15T02:13:56;24.48;;;14.98;;
45684;SDS011;46836;48.388;16.210;2023-02-15T02:35:52;25.33;;;13.55;;
45684;SDS011;46836;48.388;16.210;2023-02-15T02:38:39;23.60;;;14.18;;
45684;SDS011;46836;48.388;16.210;2023-02-15T02:49:39;25.08;;;14.00;;
45684;SDS011;46836;48.388;16.210;2023-02-15T02:55:03;29.20;;;14.77;;
45684;SDS011;46836;48.388;16.210;2023-02-15T02:57:52;31.13;;;14.15;;
45684;SDS011;46836;48.388;16.210;2023-02-15T03:01:03;25.08;;;13.85;;
45684;SDS011;46836;48.388;16.210;2023-02-15T03:03:46;31.88;;;14.82;;
45684;SDS011;46836;48.388;16.210;2023-02-15T03:06:18;26.20;;;15.32;;
45684;SDS011;46836;48.388;16.210;2023-02-15T03:08:48;26.80;;;14.80;;
45684;SDS011;46836;48.388;16.210;2023-02-15T03:11:21;21.23;;;13.43;;
45684;SDS011;46836;48.388;16.210;2023-02-15T03:13:48;28.25;;;14.50;;
45684;SDS011;46836;48.388;16.210;2023-02-15T03:16:16;24.55;;;14.30;;
45684;SDS011;46836;48.388;16.210;2023-02-15T03:18:53;24.80;;;14.00;;
45684;SDS011;46836;48.388;16.210;2023-02-15T03:24:32;26.10;;;13.52;;
45684;SDS011;46836;48.388;16.210;2023-02-15T03:27:22;23.60;;;12.18;;
45684;SDS011;46836;48.388;16.210;2023-02-15T03:29:57;26.80;;;15.05;;
45684;SDS011;46836;48.388;16.210;2023-02-15T03:32:27;20.92;;;12.80;;
45684;SDS011;46836;48.388;16.210;2023-02-15T03:34:56;29.23;;;13.85;;
45684;SDS011;46836;48.388;16.210;2023-02-15T03:40:00;23.85;;;13.25;;
45684;SDS011;46836;48.388;16.210;2023-02-15T03:43:04;26.02;;;14.63;;
45684;SDS011;46836;48.388;16.210;2023-02-15T03:45:38;27.23;;;14.05;;
45684;SDS011;46836;48.388;16.210;2023-02-15T03:48:31;23.00;;;13.18;;
45684;SDS011;46836;48.388;16.210;2023-02-15T03:51:04;24.00;;;13.27;;
45684;SDS011;46836;48.388;16.210;2023-02-15T03:53:56;25.27;;;13.70;;
45684;SDS011;46836;48.388;16.210;2023-02-15T03:56:25;25.27;;;14.50;;
45684;SDS011;46836;48.388;16.210;2023-02-15T03:58:52;28.02;;;14.52;;
45684;SDS011;46836;48.388;16.210;2023-02-15T04:01:38;30.50;;;15.30;;
45684;SDS011;46836;48.388;16.210;2023-02-15T04:04:34;26.67;;;13.93;;
45684;SDS011;46836;48.388;16.210;2023-02-15T04:07:06;27.25;;;13.57;;
45684;SDS011;46836;48.388;16.210;2023-02-15T04:09:35;23.17;;;13.63;;
45684;SDS011;46836;48.388;16.210;2023-02-15T04:12:21;27.52;;;15.05;;
45684;SDS011;46836;48.388;16.210;2023-02-15T04:14:48;25.55;;;13.82;;
45684;SDS011;46836;48.388;16.210;2023-02-15T04:17:35;21.17;;;13.07;;
45684;SDS011;46836;48.388;16.210;2023-02-15T04:20:04;25.85;;;13.85;;
45684;SDS011;46836;48.388;16.210;2023-02-15T04:22:50;20.73;;;12.88;;
45684;SDS011;46836;48.388;16.210;2023-02-15T04:25:36;22.95;;;12.32;;
45684;SDS011;46836;48.388;16.210;2023-02-15T04:28:03;24.67;;;14.48;;
45684;SDS011;46836;48.388;16.210;2023-02-15T04:30:30;22.20;;;13.00;;
45684;SDS011;46836;48.388;16.210;2023-02-15T04:32:57;24.13;;;13.70;;
45684;SDS011;46836;48.388;16.210;2023-02-15T04:35:24;22.13;;;12.55;;
45684;SDS011;46836;48.388;16.210;2023-02-15T04:37:52;25.60;;;14.25;;
45684;SDS011;46836;48.388;16.210;2023-02-15T04:40:19;26.70;;;13.70;;
45684;SDS011;46836;48.388;16.210;2023-02-15T04:42:48;26.80;;;12.80;;
45684;SDS011;46836;48.388;16.210;2023-02-15T04:45:16;21.70;;;13.38;;
45684;SDS011;46836;48.388;16.210;2023-02-15T04:47:44;22.92;;;13.25;;
45684;SDS011;46836;48.388;16.210;2023-02-15T04:50:11;25.63;;;13.13;;
45684;SDS011;46836;48.388;16.210;2023-02-15T04:52:38;25.95;;;13.80;;
45684;SDS011;46836;48.388;16.210;2023-02-15T04:55:06;25.70;;;14.38;;
45684;SDS011;46836;48.388;16.210;2023-02-15T04:57:33;22.90;;;12.73;;
45684;SDS011;46836;48.388;16.210;2023-02-15T05:00:00;23.75;;;12.35;;
45684;SDS011;46836;48.388;16.210;2023-02-15T05:02:27;22.05;;;13.20;;
45684;SDS011;46836;48.388;16.210;2023-02-15T05:04:54;26.20;;;13.23;;
45684;SDS011;46836;48.388;16.210;2023-02-15T05:07:21;32.38;;;14.10;;
45684;SDS011;46836;48.388;16.210;2023-02-15T05:09:48;31.83;;;15.35;;
45684;SDS011;46836;48.388;16.210;2023-02-15T05:12:15;26.17;;;14.05;;
45684;SDS011;46836;48.388;16.210;2023-02-15T05:14:42;26.58;;;14.65;;
45684;SDS011;46836;48.388;16.210;2023-02-15T05:17:09;21.10;;;12.38;;
45684;SDS011;46836;48.388;16.210;2023-02-15T05:19:36;26.88;;;14.80;;
45684;SDS011;46836;48.388;16.210;2023-02-15T05:22:03;26.05;;;14.30;;
45684;SDS011;46836;48.388;16.210;2023-02-15T05:24:30;27.02;;;14.80;;
45684;SDS011;46836;48.388;16.210;2023-02-15T05:27:16;29.83;;;15.90;;
45684;SDS011;46836;48.388;16.210;2023-02-15T05:30:02;24.98;;;13.93;;
45684;SDS011;46836;48.388;16.210;2023-02-15T05:32:29;25.15;;;14.63;;
45684;SDS011;46836;48.388;16.210;2023-02-15T05:34:56;24.40;;;13.70;;
45684;SDS011;46836;48.388;16.210;2023-02-15T05:37:23;27.83;;;14.50;;
45684;SDS011;46836;48.388;16.210;2023-02-15T05:39:51;25.45;;;13.10;;
45684;SDS011;46836;48.388;16.210;2023-02-15T05:42:18;34.53;;;14.02;;
45684;SDS011;46836;48.388;16.210;2023-02-15T05:44:45;23.25;;;13.68;;
45684;SDS011;46836;48.388;16.210;2023-02-15T05:47:12;26.90;;;15.10;;
45684;SDS011;46836;48.388;16.210;2023-02-15T05:49:39;24.38;;;14.32;;
45684;SDS011;46836;48.388;16.210;2023-02-15T05:52:06;29.17;;;14.27;;
45684;SDS011;46836;48.388;16.210;2023-02-15T05:54:33;23.83;;;13.55;;
45684;SDS011;46836;48.388;16.210;2023-02-15T05:57:00;26.15;;;14.95;;
45684;SDS011;46836;48.388;16.210;2023-02-15T05:59:27;27.63;;;14.65;;
45684;SDS011;46836;48.388;16.210;2023-02-15T06:01:54;29.85;;;15.75;;
45684;SDS011;46836;48.388;16.210;2023-02-15T06:04:21;28.50;;;13.93;;
45684;SDS011;46836;48.388;16.210;2023-02-15T06:06:48;26.45;;;15.00;;
45684;SDS011;46836;48.388;16.210;2023-02-15T06:09:15;25.88;;;14.55;;
45684;SDS011;46836;48.388;16.210;2023-02-15T06:11:44;28.55;;;14.55;;
45684;SDS011;46836;48.388;16.210;2023-02-15T06:14:11;27.35;;;14.23;;
45684;SDS011;46836;48.388;16.210;2023-02-15T06:16:39;24.42;;;13.93;;
45684;SDS011;46836;48.388;16.210;2023-02-15T06:19:06;29.25;;;15.70;;
45684;SDS011;46836;48.388;16.210;2023-02-15T06:21:33;27.25;;;15.98;;
45684;SDS011;46836;48.388;16.210;2023-02-15T06:24:00;24.27;;;13.52;;
45684;SDS011;46836;48.388;16.210;2023-02-15T06:26:27;23.25;;;13.30;;
45684;SDS011;46836;48.388;16.210;2023-02-15T06:28:54;22.77;;;13.20;;
45684;SDS011;46836;48.388;16.210;2023-02-15T06:31:21;22.75;;;12.63;;
45684;SDS011;46836;48.388;16.210;2023-02-15T06:33:49;22.00;;;13.90;;
45684;SDS011;46836;48.388;16.210;2023-02-15T06:36:16;27.15;;;13.43;;
45684;SDS011;46836;48.388;16.210;2023-02-15T06:38:43;26.52;;;13.63;;
45684;SDS011;46836;48.388;16.210;2023-02-15T06:41:10;25.48;;;12.95;;
45684;SDS011;46836;48.388;16.210;2023-02-15T06:43:37;23.50;;;13.30;;
45684;SDS011;46836;48.388;16.210;2023-02-15T06:46:06;25.50;;;12.10;;
45684;SDS011;46836;48.388;16.210;2023-02-15T06:48:33;24.80;;;12.90;;
45684;SDS011;46836;48.388;16.210;2023-02-15T06:51:00;24.92;;;13.40;;
45684;SDS011;46836;48.388;16.210;2023-02-15T06:53:27;25.20;;;12.95;;
45684;SDS011;46836;48.388;16.210;2023-02-15T06:56:02;18.27;;;11.07;;
45684;SDS011;46836;48.388;16.210;2023-02-15T06:58:33;19.27;;;10.98;;
45684;SDS011;46836;48.388;16.210;2023-02-15T07:01:07;21.30;;;11.93;;
45684;SDS011;46836;48.388;16.210;2023-02-15T07:03:35;24.17;;;12.05;;
45684;SDS011;46836;48.388;16.210;2023-02-15T07:06:03;22.95;;;12.88;;
45684;SDS011;46836;48.388;16.210;2023-02-15T07:08:34;16.65;;;10.90;;
45684;SDS011;46836;48.388;16.210;2023-02-15T07:11:02;22.27;;;10.95;;
45684;SDS011;46836;48.388;16.210;2023-02-15T07:13:48;22.65;;;12.15;;
45684;SDS011;46836;48.388;16.210;2023-02-15T07:16:15;22.15;;;11.13;;
45684;SDS011;46836;48.388;16.210;2023-02-15T07:18:43;22.48;;;12.18;;
45684;SDS011;46836;48.388;16.210;2023-02-15T07:21:10;21.00;;;11.63;;
45684;SDS011;46836;48.388;16.210;2023-02-15T07:23:37;20.88;;;12.32;;
45684;SDS011;46836;48.388;16.210;2023-02-15T07:26:05;20.85;;;11.10;;
45684;SDS011;46836;48.388;16.210;2023-02-15T07:28:34;18.60;;;11.02;;
45684;SDS011;46836;48.388;16.210;2023-02-15T07:31:03;22.52;;;12.65;;
45684;SDS011;46836;48.388;16.210;2023-02-15T07:33:31;23.05;;;12.80;;
45684;SDS011;46836;48.388;16.210;2023-02-15T07:36:00;21.25;;;11.98;;
45684;SDS011;46836;48.388;16.210;2023-02-15T07:38:32;23.42;;;12.68;;
45684;SDS011;46836;48.388;16.210;2023-02-15T07:41:02;24.48;;;13.13;;
45684;SDS011;46836;48.388;16.210;2023-02-15T07:43:35;27.88;;;13.38;;
45684;SDS011;46836;48.388;16.210;2023-02-15T07:46:05;23.50;;;13.80;;
45684;SDS011;46836;48.388;16.210;2023-02-15T07:48:35;25.00;;;12.55;;
45684;SDS011;46836;48.388;16.210;2023-02-15T07:51:05;20.15;;;12.82;;
45684;SDS011;46836;48.388;16.210;2023-02-15T07:53:33;37.22;;;14.85;;
45684;SDS011;46836;48.388;16.210;2023-02-15T07:56:03;29.15;;;14.77;;
45684;SDS011;46836;48.388;16.210;2023-02-15T07:58:32;21.92;;;13.75;;
45684;SDS011;46836;48.388;16.210;2023-02-15T08:03:47;25.85;;;13.98;;
45684;SDS011;46836;48.388;16.210;2023-02-15T08:06:15;27.25;;;13.98;;
45684;SDS011;46836;48.388;16.210;2023-02-15T08:08:42;25.10;;;15.45;;
45684;SDS011;46836;48.388;16.210;2023-02-15T08:11:17;23.25;;;13.30;;
45684;SDS011;46836;48.388;16.210;2023-02-15T08:13:53;28.38;;;14.35;;
45684;SDS011;46836;48.388;16.210;2023-02-15T08:16:52;26.80;;;15.10;;
45684;SDS011;46836;48.388;16.210;2023-02-15T08:21:57;29.77;;;15.27;;
45684;SDS011;46836;48.388;16.210;2023-02-15T08:24:27;24.20;;;14.77;;
45684;SDS011;46836;48.388;16.210;2023-02-15T08:26:56;24.50;;;13.93;;
45684;SDS011;46836;48.388;16.210;2023-02-15T08:29:27;27.65;;;14.60;;
45684;SDS011;46836;48.388;16.210;2023-02-15T08:31:56;27.75;;;15.45;;
45684;SDS011;46836;48.388;16.210;2023-02-15T08:34:29;24.92;;;14.00;;
45684;SDS011;46836;48.388;16.210;2023-02-15T08:36:58;24.63;;;14.63;;
45684;SDS011;46836;48.388;16.210;2023-02-15T08:39:25;21.75;;;12.95;;
45684;SDS011;46836;48.388;16.210;2023-02-15T08:41:52;26.42;;;14.60;;
45684;SDS011;46836;48.388;16.210;2023-02-15T08:44:20;26.02;;;14.68;;
45684;SDS011;46836;48.388;16.210;2023-02-15T08:46:47;29.15;;;14.73;;
45684;SDS011;46836;48.388;16.210;2023-02-15T08:49:20;30.25;;;15.00;;
45684;SDS011;46836;48.388;16.210;2023-02-15T08:51:48;28.65;;;15.68;;
45684;SDS011;46836;48.388;16.210;2023-02-15T08:54:19;27.50;;;15.35;;
45684;SDS011;46836;48.388;16.210;2023-02-15T08:56:48;29.42;;;15.93;;
45684;SDS011;46836;48.388;16.210;2023-02-15T08:59:16;29.40;;;16.95;;
45684;SDS011;46836;48.388;16.210;2023-02-15T09:01:45;32.67;;;17.50;;
45684;SDS011;46836;48.388;16.210;2023-02-15T09:04:13;29.20;;;15.90;;
45684;SDS011;46836;48.388;16.210;2023-02-15T09:06:42;27.88;;;15.82;;
45684;SDS011;46836;48.388;16.210;2023-02-15T09:09:14;34.88;;;16.48;;
45684;SDS011;46836;48.388;16.210;2023-02-15T09:11:43;29.67;;;16.00;;
45684;SDS011;46836;48.388;16.210;2023-02-15T09:14:12;30.38;;;16.40;;
45684;SDS011;46836;48.388;16.210;2023-02-15T09:16:44;27.60;;;16.23;;
45684;SDS011;46836;48.388;16.210;2023-02-15T09:19:15;31.52;;;16.90;;
45684;SDS011;46836;48.388;16.210;2023-02-15T09:21:44;30.25;;;17.40;;
45684;SDS011;46836;48.388;16.210;2023-02-15T09:24:13;31.73;;;17.92;;
45684;SDS011;46836;48.388;16.210;2023-02-15T09:26:42;41.13;;;20.10;;
45684;SDS011;46836;48.388;16.210;2023-02-15T09:29:12;33.50;;;16.42;;
45684;SDS011;46836;48.388;16.210;2023-02-15T09:31:40;30.58;;;15.50;;
45684;SDS011;46836;48.388;16.210;2023-02-15T09:34:13;29.40;;;16.33;;
45684;SDS011;46836;48.388;16.210;2023-02-15T09:36:43;33.50;;;17.35;;
45684;SDS011;46836;48.388;16.210;2023-02-15T09:39:11;28.48;;;15.88;;
45684;SDS011;46836;48.388;16.210;2023-02-15T09:52:57;37.55;;;16.83;;
45684;SDS011;46836;48.388;16.210;2023-02-15T09:58:21;29.80;;;17.35;;
45684;SDS011;46836;48.388;16.210;2023-02-15T10:23:15;27.73;;;16.05;;
45684;SDS011;46836;48.388;16.210;2023-02-15T10:28:51;34.25;;;17.10;;
45684;SDS011;46836;48.388;16.210;2023-02-15T10:31:24;26.95;;;15.07;;
45684;SDS011;46836;48.388;16.210;2023-02-15T10:34:06;29.33;;;16.98;;
45684;SDS011;46836;48.388;16.210;2023-02-15T10:37:13;32.47;;;16.27;;
45684;SDS011;46836;48.388;16.210;2023-02-15T10:40:01;29.15;;;16.70;;
45684;SDS011;46836;48.388;16.210;2023-02-15T10:42:54;31.40;;;17.02;;
45684;SDS011;46836;48.388;16.210;2023-02-15T10:48:40;29.63;;;17.63;;
45684;SDS011;46836;48.388;16.210;2023-02-15T10:54:18;35.85;;;17.45;;
45684;SDS011;46836;48.388;16.210;2023-02-15T10:59:51;29.52;;;16.88;;
45684;SDS011;46836;48.388;16.210;2023-02-15T11:08:55;29.40;;;16.00;;
45684;SDS011;46836;48.388;16.210;2023-02-15T11:11:34;29.30;;;16.38;;
45684;SDS011;46836;48.388;16.210;2023-02-15T11:17:05;31.08;;;16.48;;
45684;SDS011;46836;48.388;16.210;2023-02-15T11:19:39;28.38;;;15.55;;
45684;SDS011;46836;48.388;16.210;2023-02-15T11:22:30;33.92;;;16.10;;
45684;SDS011;46836;48.388;16.210;2023-02-15T11:25:00;33.95;;;16.80;;
45684;SDS011;46836;48.388;16.210;2023-02-15T11:27:40;29.38;;;16.02;;
45684;SDS011;46836;48.388;16.210;2023-02-15T11:30:13;32.33;;;16.58;;
45684;SDS011;46836;48.388;16.210;2023-02-15T11:32:46;25.75;;;15.15;;
45684;SDS011;46836;48.388;16.210;2023-02-15T11:35:19;32.25;;;15.80;;
45684;SDS011;46836;48.388;16.210;2023-02-15T11:41:09;33.30;;;15.80;;
45684;SDS011;46836;48.388;16.210;2023-02-15T11:43:43;31.05;;;16.40;;
45684;SDS011;46836;48.388;16.210;2023-02-15T11:46:18;33.03;;;15.82;;
45684;SDS011;46836;48.388;16.210;2023-02-15T11:48:47;30.92;;;17.02;;
45684;SDS011;46836;48.388;16.210;2023-02-15T11:51:16;31.17;;;17.88;;
45684;SDS011;46836;48.388;16.210;2023-02-15T11:53:49;29.35;;;17.23;;
45684;SDS011;46836;48.388;16.210;2023-02-15T11:56:24;30.42;;;16.83;;
45684;SDS011;46836;48.388;16.210;2023-02-15T11:58:57;34.17;;;17.83;;
45684;SDS011;46836;48.388;16.210;2023-02-15T12:01:48;35.55;;;17.60;;
45684;SDS011;46836;48.388;16.210;2023-02-15T12:07:02;36.08;;;17.52;;
45684;SDS011;46836;48.388;16.210;2023-02-15T12:13:14;28.17;;;15.65;;
45684;SDS011;46836;48.388;16.210;2023-02-15T12:15:53;32.75;;;16.45;;
45684;SDS011;46836;48.388;16.210;2023-02-15T12:21:33;31.33;;;15.35;;
45684;SDS011;46836;48.388;16.210;2023-02-15T12:24:15;31.20;;;18.05;;
45684;SDS011;46836;48.388;16.210;2023-02-15T12:26:45;28.38;;;15.23;;
45684;SDS011;46836;48.388;16.210;2023-02-15T12:29:49;29.45;;;15.55;;
45684;SDS011;46836;48.388;16.210;2023-02-15T12:34:54;29.40;;;16.45;;
45684;SDS011;46836;48.388;16.210;2023-02-15T12:37:27;30.85;;;16.25;;
45684;SDS011;46836;48.388;16.210;2023-02-15T12:39:59;31.42;;;17.83;;
45684;SDS011;46836;48.388;16.210;2023-02-15T12:42:28;28.10;;;16.38;;
45684;SDS011;46836;48.388;16.210;2023-02-15T12:47:46;35.33;;;16.52;;
45684;SDS011;46836;48.388;16.210;2023-02-15T12:50:40;27.08;;;15.80;;
45684;SDS011;46836;48.388;16.210;2023-02-15T12:53:14;34.25;;;17.70;;
45684;SDS011;46836;48.388;16.210;2023-02-15T12:55:49;25.23;;;15.30;;
45684;SDS011;46836;48.388;16.210;2023-02-15T12:58:25;33.67;;;16.73;;
45684;SDS011;46836;48.388;16.210;2023-02-15T13:01:16;33.47;;;17.42;;
45684;SDS011;46836;48.388;16.210;2023-02-15T13:06:19;31.42;;;15.50;;
45684;SDS011;46836;48.388;16.210;2023-02-15T13:08:51;32.65;;;16.60;;
45684;SDS011;46836;48.388;16.210;2023-02-15T13:11:28;29.40;;;17.52;;
45684;SDS011;46836;48.388;16.210;2023-02-15T13:14:01;31.77;;;16.83;;
45684;SDS011;46836;48.388;16.210;2023-02-15T13:16:40;31.10;;;16.83;;
45684;SDS011;46836;48.388;16.210;2023-02-15T13:19:10;29.73;;;15.80;;
45684;SDS011;46836;48.388;16.210;2023-02-15T13:21:44;43.50;;;15.77;;
45684;SDS011;46836;48.388;16.210;2023-02-15T13:24:33;33.05;;;18.00;;
45684;SDS011;46836;48.388;16.210;2023-02-15T13:27:05;35.95;;;16.83;;
45684;SDS011;46836;48.388;16.210;2023-02-15T13:29:43;27.65;;;16.33;;
45684;SDS011;46836;48.388;16.210;2023-02-15T13:34:53;35.55;;;16.80;;
45684;SDS011;46836;48.388;16.210;2023-02-15T13:40:23;27.75;;;15.15;;
45684;SDS011;46836;48.388;16.210;2023-02-15T13:43:17;32.15;;;16.20;;
45684;SDS011;46836;48.388;16.210;2023-02-15T13:45:57;26.88;;;15.32;;
45684;SDS011;46836;48.388;16.210;2023-02-15T13:51:45;30.80;;;16.92;;
45684;SDS011;46836;48.388;16.210;2023-02-15T13:57:40;33.10;;;16.90;;
45684;SDS011;46836;48.388;16.210;2023-02-15T14:19:37;34.90;;;16.90;;
45684;SDS011;46836;48.388;16.210;2023-02-15T14:22:19;28.13;;;14.95;;
45684;SDS011;46836;48.388;16.210;2023-02-15T14:25:12;31.40;;;16.38;;
45684;SDS011;46836;48.388;16.210;2023-02-15T14:30:42;29.85;;;15.05;;
45684;SDS011;46836;48.388;16.210;2023-02-15T14:36:11;31.70;;;15.55;;
45684;SDS011;46836;48.388;16.210;2023-02-15T14:38:51;31.40;;;16.63;;
45684;SDS011;46836;48.388;16.210;2023-02-15T14:42:30;30.50;;;16.52;;
45684;SDS011;46836;48.388;16.210;2023-02-15T14:47:43;38.88;;;17.27;;
45684;SDS011;46836;48.388;16.210;2023-02-15T14:55:47;31.42;;;16.30;;
45684;SDS011;46836;48.388;16.210;2023-02-15T14:58:31;39.22;;;18.13;;
45684;SDS011;46836;48.388;16.210;2023-02-15T15:01:08;28.40;;;16.83;;
45684;SDS011;46836;48.388;16.210;2023-02-15T15:03:42;31.10;;;15.43;;
45684;SDS011;46836;48.388;16.210;2023-02-15T15:06:57;26.85;;;14.93;;
45684;SDS011;46836;48.388;16.210;2023-02-15T15:09:27;33.08;;;15.77;;
45684;SDS011;46836;48.388;16.210;2023-02-15T15:14:48;48.35;;;20.70;;
45684;SDS011;46836;48.388;16.210;2023-02-15T15:18:00;35.83;;;16.27;;
45684;SDS011;46836;48.388;16.210;2023-02-15T15:25:51;31.23;;;15.52;;
45684;SDS011;46836;48.388;16.210;2023-02-15T15:31:04;29.75;;;16.17;;
45684;SDS011;46836;48.388;16.210;2023-02-15T15:50:48;28.33;;;15.30;;
45684;SDS011;46836;48.388;16.210;2023-02-15T15:53:22;26.83;;;15.13;;
45684;SDS011;46836;48.388;16.210;2023-02-15T15:55:55;27.60;;;15.32;;
45684;SDS011;46836;48.388;16.210;2023-02-15T15:58:28;34.72;;;17.63;;
45684;SDS011;46836;48.388;16.210;2023-02-15T16:00:59;31.45;;;16.85;;
45684;SDS011;46836;48.388;16.210;2023-02-15T16:03:29;42.10;;;16.27;;
45684;SDS011;46836;48.388;16.210;2023-02-15T16:05:57;28.73;;;16.75;;
45684;SDS011;46836;48.388;16.210;2023-02-15T16:08:29;29.73;;;16.02;;
45684;SDS011;46836;48.388;16.210;2023-02-15T16:11:00;30.50;;;17.23;;
45684;SDS011;46836;48.388;16.210;2023-02-15T16:13:43;32.10;;;17.25;;
45684;SDS011;46836;48.388;16.210;2023-02-15T16:16:12;29.77;;;16.23;;
45684;SDS011;46836;48.388;16.210;2023-02-15T16:18:46;33.55;;;17.75;;
45684;SDS011;46836;48.388;16.210;2023-02-15T16:21:18;30.38;;;15.77;;
45684;SDS011;46836;48.388;16.210;2023-02-15T16:24:36;35.85;;;17.73;;
45684;SDS011;46836;48.388;16.210;2023-02-15T16:29:37;33.97;;;17.40;;
45684;SDS011;46836;48.388;16.210;2023-02-15T16:32:05;35.38;;;17.88;;
45684;SDS011;46836;48.388;16.210;2023-02-15T16:34:52;27.42;;;15.40;;
45684;SDS011;46836;48.388;16.210;2023-02-15T16:37:23;33.95;;;17.55;;
45684;SDS011;46836;48.388;16.210;2023-02-15T16:39:54;28.20;;;15.77;;
45684;SDS011;46836;48.388;16.210;2023-02-15T16:42:22;34.92;;;17.15;;
45684;SDS011;46836;48.388;16.210;2023-02-15T16:44:55;33.20;;;16.75;;
45684;SDS011;46836;48.388;16.210;2023-02-15T16:47:36;33.33;;;16.42;;
45684;SDS011;46836;48.388;16.210;2023-02-15T16:50:16;31.52;;;16.55;;
45684;SDS011;46836;48.388;16.210;2023-02-15T16:53:06;33.78;;;16.48;;
45684;SDS011;46836;48.388;16.210;2023-02-15T16:55:43;27.73;;;15.77;;
45684;SDS011;46836;48.388;16.210;2023-02-15T16:58:44;36.47;;;18.08;;
45684;SDS011;46836;48.388;16.210;2023-02-15T17:01:14;34.70;;;17.95;;
45684;SDS011;46836;48.388;16.210;2023-02-15T17:03:42;33.45;;;17.40;;
45684;SDS011;46836;48.388;16.210;2023-02-15T17:06:24;34.45;;;17.27;;
45684;SDS011;46836;48.388;16.210;2023-02-15T17:08:53;34.78;;;15.95;;
45684;SDS011;46836;48.388;16.210;2023-02-15T17:11:40;37.65;;;17.67;;
45684;SDS011;46836;48.388;16.210;2023-02-15T17:14:11;35.15;;;17.50;;
45684;SDS011;46836;48.388;16.210;2023-02-15T17:16:42;34.10;;;16.38;;
45684;SDS011;46836;48.388;16.210;2023-02-15T17:19:40;35.88;;;17.20;;
45684;SDS011;46836;48.388;16.210;2023-02-15T17:22:17;34.47;;;17.95;;
45684;SDS011;46836;48.388;16.210;2023-02-15T17:24:48;33.05;;;17.38;;
45684;SDS011;46836;48.388;16.210;2023-02-15T17:27:25;35.33;;;17.13;;
45684;SDS011;46836;48.388;16.210;2023-02-15T17:29:57;32.53;;;15.50;;
45684;SDS011;46836;48.388;16.210;2023-02-15T17:32:31;32.65;;;17.48;;
45684;SDS011;46836;48.388;16.210;2023-02-15T17:35:05;39.58;;;17.73;;
45684;SDS011;46836;48.388;16.210;2023-02-15T17:42:53;35.03;;;17.27;;
45684;SDS011;46836;48.388;16.210;2023-02-15T17:45:22;36.83;;;18.42;;
45684;SDS011;46836;48.388;16.210;2023-02-15T17:47:54;40.85;;;18.90;;
45684;SDS011;46836;48.388;16.210;2023-02-15T17:50:26;36.08;;;17.60;;
45684;SDS011;46836;48.388;16.210;2023-02-15T17:52:55;37.00;;;19.42;;
45684;SDS011;46836;48.388;16.210;2023-02-15T17:55:25;34.17;;;17.10;;
45684;SDS011;46836;48.388;16.210;2023-02-15T17:58:09;33.17;;;17.70;;
45684;SDS011;46836;48.388;16.210;2023-02-15T18:00:42;41.95;;;19.52;;
45684;SDS011;46836;48.388;16.210;2023-02-15T18:06:29;35.42;;;16.60;;
45684;SDS011;46836;48.388;16.210;2023-02-15T18:09:18;33.33;;;16.50;;
45684;SDS011;46836;48.388;16.210;2023-02-15T18:12:17;39.92;;;18.20;;